Athol, Pennsylvania
Current Conditions -  °F | °C
As of 9:36 PM on Sunday 25 Jan 2015 (Local Time) from KPTW Reporting Station
Light Snow Light Snow  
Wind Chill: -3°   Ceiling: 3500
Heat Index:   Visibility: 9mi
Dew Point: -4°   Wind: 8mph
Humidity: 67%   Direction: 40°NE
Pressure: 29.93"   Gusts: NA
Location:  40.3194°N, 75.7364°W
Report Text: KPTW 260236Z AUTO 04007KT 9SM -SN SCT028 OVC035 01/M04 A2993 RMK AO2 UPB01E13SNB15 P0000 T00111044
Loading
Personal Weather Stations






























Interactive Weather Map New forecast layout! Learn more

10-Day Weather Forecast

Advertisements
Track Severe Weather on mobile